sensor_id;sensor_type;location;lat;lon;timestamp;P1;durP1;ratioP1;P2;durP2;ratioP2
48028;SDS011;33808;37.368;127.108;2023-03-20T00:00:01;162.13;;;68.85;;
48028;SDS011;33808;37.368;127.108;2023-03-20T00:02:31;153.32;;;68.25;;
48028;SDS011;33808;37.368;127.108;2023-03-20T00:05:01;154.43;;;68.90;;
48028;SDS011;33808;37.368;127.108;2023-03-20T00:07:33;161.75;;;69.72;;
48028;SDS011;33808;37.368;127.108;2023-03-20T00:10:03;168.45;;;72.03;;
48028;SDS011;33808;37.368;127.108;2023-03-20T00:12:33;156.80;;;68.43;;
48028;SDS011;33808;37.368;127.108;2023-03-20T00:15:04;155.13;;;66.80;;
48028;SDS011;33808;37.368;127.108;2023-03-20T00:17:45;162.63;;;67.72;;
48028;SDS011;33808;37.368;127.108;2023-03-20T00:20:15;143.80;;;66.45;;
48028;SDS011;33808;37.368;127.108;2023-03-20T00:22:44;148.38;;;65.53;;
48028;SDS011;33808;37.368;127.108;2023-03-20T00:25:15;151.10;;;64.80;;
48028;SDS011;33808;37.368;127.108;2023-03-20T00:27:47;159.45;;;70.22;;
48028;SDS011;33808;37.368;127.108;2023-03-20T00:30:18;146.05;;;63.80;;
48028;SDS011;33808;37.368;127.108;2023-03-20T00:32:56;149.15;;;64.18;;
48028;SDS011;33808;37.368;127.108;2023-03-20T00:35:27;147.88;;;66.28;;
48028;SDS011;33808;37.368;127.108;2023-03-20T00:37:58;154.48;;;64.75;;
48028;SDS011;33808;37.368;127.108;2023-03-20T00:40:29;151.27;;;64.93;;
48028;SDS011;33808;37.368;127.108;2023-03-20T00:43:00;145.10;;;64.30;;
48028;SDS011;33808;37.368;127.108;2023-03-20T00:45:32;151.10;;;66.20;;
48028;SDS011;33808;37.368;127.108;2023-03-20T00:48:03;140.07;;;63.25;;
48028;SDS011;33808;37.368;127.108;2023-03-20T00:50:34;156.57;;;69.40;;
48028;SDS011;33808;37.368;127.108;2023-03-20T00:53:04;144.50;;;66.75;;
48028;SDS011;33808;37.368;127.108;2023-03-20T00:55:37;138.15;;;61.45;;
48028;SDS011;33808;37.368;127.108;2023-03-20T00:58:08;139.68;;;61.65;;
48028;SDS011;33808;37.368;127.108;2023-03-20T01:00:40;125.95;;;58.00;;
48028;SDS011;33808;37.368;127.108;2023-03-20T01:03:21;126.15;;;56.17;;
48028;SDS011;33808;37.368;127.108;2023-03-20T01:05:54;117.78;;;52.83;;
48028;SDS011;33808;37.368;127.108;2023-03-20T01:08:25;123.40;;;53.08;;
48028;SDS011;33808;37.368;127.108;2023-03-20T01:10:55;112.68;;;51.60;;
48028;SDS011;33808;37.368;127.108;2023-03-20T01:13:27;119.18;;;50.72;;
48028;SDS011;33808;37.368;127.108;2023-03-20T01:15:58;112.07;;;49.88;;
48028;SDS011;33808;37.368;127.108;2023-03-20T01:18:28;117.75;;;53.50;;
48028;SDS011;33808;37.368;127.108;2023-03-20T01:20:57;105.88;;;50.47;;
48028;SDS011;33808;37.368;127.108;2023-03-20T01:23:27;109.43;;;52.22;;
48028;SDS011;33808;37.368;127.108;2023-03-20T01:25:57;111.45;;;51.30;;
48028;SDS011;33808;37.368;127.108;2023-03-20T01:28:27;98.93;;;50.72;;
48028;SDS011;33808;37.368;127.108;2023-03-20T01:30:59;115.53;;;53.33;;
48028;SDS011;33808;37.368;127.108;2023-03-20T01:33:29;118.97;;;56.25;;
48028;SDS011;33808;37.368;127.108;2023-03-20T01:35:58;117.10;;;52.20;;
48028;SDS011;33808;37.368;127.108;2023-03-20T01:38:29;108.72;;;52.33;;
48028;SDS011;33808;37.368;127.108;2023-03-20T01:41:20;114.35;;;52.03;;
48028;SDS011;33808;37.368;127.108;2023-03-20T01:43:50;106.90;;;50.88;;
48028;SDS011;33808;37.368;127.108;2023-03-20T01:46:24;108.63;;;49.00;;
48028;SDS011;33808;37.368;127.108;2023-03-20T01:51:47;101.47;;;47.67;;
48028;SDS011;33808;37.368;127.108;2023-03-20T01:54:22;97.05;;;44.67;;
48028;SDS011;33808;37.368;127.108;2023-03-20T01:56:59;111.45;;;46.58;;
48028;SDS011;33808;37.368;127.108;2023-03-20T02:02:01;94.72;;;45.35;;
48028;SDS011;33808;37.368;127.108;2023-03-20T02:04:33;99.90;;;45.35;;
48028;SDS011;33808;37.368;127.108;2023-03-20T02:07:06;84.75;;;40.60;;
48028;SDS011;33808;37.368;127.108;2023-03-20T02:09:38;72.68;;;35.22;;
48028;SDS011;33808;37.368;127.108;2023-03-20T02:12:08;48.55;;;25.20;;
48028;SDS011;33808;37.368;127.108;2023-03-20T02:14:38;68.80;;;35.05;;
48028;SDS011;33808;37.368;127.108;2023-03-20T02:17:09;64.00;;;30.25;;
48028;SDS011;33808;37.368;127.108;2023-03-20T02:33:58;67.28;;;32.90;;
48028;SDS011;33808;37.368;127.108;2023-03-20T02:45:36;69.43;;;33.78;;
48028;SDS011;33808;37.368;127.108;2023-03-20T02:57:06;65.20;;;33.15;;
48028;SDS011;33808;37.368;127.108;2023-03-20T02:59:54;70.22;;;34.08;;
48028;SDS011;33808;37.368;127.108;2023-03-20T03:02:36;66.22;;;33.15;;
48028;SDS011;33808;37.368;127.108;2023-03-20T03:05:21;67.57;;;33.58;;
48028;SDS011;33808;37.368;127.108;2023-03-20T03:07:52;63.97;;;33.30;;
48028;SDS011;33808;37.368;127.108;2023-03-20T03:10:43;60.78;;;33.63;;
48028;SDS011;33808;37.368;127.108;2023-03-20T03:13:26;69.10;;;34.05;;
48028;SDS011;33808;37.368;127.108;2023-03-20T03:16:00;68.53;;;34.35;;
48028;SDS011;33808;37.368;127.108;2023-03-20T03:18:32;72.57;;;36.47;;
48028;SDS011;33808;37.368;127.108;2023-03-20T03:21:03;73.80;;;36.35;;
48028;SDS011;33808;37.368;127.108;2023-03-20T03:23:39;79.32;;;37.83;;
48028;SDS011;33808;37.368;127.108;2023-03-20T03:26:11;74.15;;;37.25;;
48028;SDS011;33808;37.368;127.108;2023-03-20T03:31:45;84.88;;;38.33;;
48028;SDS011;33808;37.368;127.108;2023-03-20T03:34:16;75.28;;;36.83;;
48028;SDS011;33808;37.368;127.108;2023-03-20T03:42:21;73.03;;;38.35;;
48028;SDS011;33808;37.368;127.108;2023-03-20T03:47:31;76.75;;;38.63;;
48028;SDS011;33808;37.368;127.108;2023-03-20T03:50:16;78.82;;;36.10;;
48028;SDS011;33808;37.368;127.108;2023-03-20T03:52:50;74.65;;;38.97;;
48028;SDS011;33808;37.368;127.108;2023-03-20T03:55:26;66.88;;;35.83;;
48028;SDS011;33808;37.368;127.108;2023-03-20T03:58:06;79.38;;;39.33;;
48028;SDS011;33808;37.368;127.108;2023-03-20T04:00:40;75.95;;;40.28;;
48028;SDS011;33808;37.368;127.108;2023-03-20T04:03:10;81.18;;;39.25;;
48028;SDS011;33808;37.368;127.108;2023-03-20T04:05:41;76.97;;;40.35;;
48028;SDS011;33808;37.368;127.108;2023-03-20T04:08:13;86.20;;;40.45;;
48028;SDS011;33808;37.368;127.108;2023-03-20T04:10:43;81.20;;;42.13;;
48028;SDS011;33808;37.368;127.108;2023-03-20T04:13:13;78.53;;;40.88;;
48028;SDS011;33808;37.368;127.108;2023-03-20T04:15:43;77.97;;;41.58;;
48028;SDS011;33808;37.368;127.108;2023-03-20T04:18:14;77.65;;;39.88;;
48028;SDS011;33808;37.368;127.108;2023-03-20T04:20:45;75.45;;;39.28;;
48028;SDS011;33808;37.368;127.108;2023-03-20T04:23:15;80.03;;;40.38;;
48028;SDS011;33808;37.368;127.108;2023-03-20T04:25:45;80.30;;;40.65;;
48028;SDS011;33808;37.368;127.108;2023-03-20T04:28:15;83.70;;;40.50;;
48028;SDS011;33808;37.368;127.108;2023-03-20T04:30:53;76.97;;;39.33;;
48028;SDS011;33808;37.368;127.108;2023-03-20T04:33:24;75.63;;;39.17;;
48028;SDS011;33808;37.368;127.108;2023-03-20T04:35:54;70.25;;;35.50;;
48028;SDS011;33808;37.368;127.108;2023-03-20T04:38:24;64.40;;;35.83;;
48028;SDS011;33808;37.368;127.108;2023-03-20T04:40:54;73.13;;;37.35;;
48028;SDS011;33808;37.368;127.108;2023-03-20T04:43:24;66.10;;;33.28;;
48028;SDS011;33808;37.368;127.108;2023-03-20T04:45:53;58.47;;;32.08;;
48028;SDS011;33808;37.368;127.108;2023-03-20T04:48:23;61.20;;;32.17;;
48028;SDS011;33808;37.368;127.108;2023-03-20T04:50:55;54.92;;;30.73;;
48028;SDS011;33808;37.368;127.108;2023-03-20T04:53:24;53.72;;;29.05;;
48028;SDS011;33808;37.368;127.108;2023-03-20T04:55:54;57.65;;;30.05;;
48028;SDS011;33808;37.368;127.108;2023-03-20T04:58:27;52.88;;;28.30;;
48028;SDS011;33808;37.368;127.108;2023-03-20T05:00:57;67.78;;;29.73;;
48028;SDS011;33808;37.368;127.108;2023-03-20T05:03:27;51.70;;;28.73;;
48028;SDS011;33808;37.368;127.108;2023-03-20T05:05:56;48.65;;;25.55;;
48028;SDS011;33808;37.368;127.108;2023-03-20T05:08:26;46.25;;;26.02;;
48028;SDS011;33808;37.368;127.108;2023-03-20T05:10:56;50.58;;;24.85;;
48028;SDS011;33808;37.368;127.108;2023-03-20T05:13:25;49.63;;;25.52;;
48028;SDS011;33808;37.368;127.108;2023-03-20T05:15:55;48.60;;;24.85;;
48028;SDS011;33808;37.368;127.108;2023-03-20T05:18:25;42.53;;;23.10;;
48028;SDS011;33808;37.368;127.108;2023-03-20T05:20:55;43.38;;;25.42;;
48028;SDS011;33808;37.368;127.108;2023-03-20T05:23:24;52.90;;;26.70;;
48028;SDS011;33808;37.368;127.108;2023-03-20T05:25:54;42.58;;;23.98;;
48028;SDS011;33808;37.368;127.108;2023-03-20T05:28:24;50.97;;;27.33;;
48028;SDS011;33808;37.368;127.108;2023-03-20T05:30:54;54.60;;;26.23;;
48028;SDS011;33808;37.368;127.108;2023-03-20T05:33:24;60.08;;;28.63;;
48028;SDS011;33808;37.368;127.108;2023-03-20T05:35:54;51.53;;;26.38;;
48028;SDS011;33808;37.368;127.108;2023-03-20T05:38:23;46.17;;;24.55;;
48028;SDS011;33808;37.368;127.108;2023-03-20T05:40:57;47.28;;;23.48;;
48028;SDS011;33808;37.368;127.108;2023-03-20T05:43:28;39.92;;;23.67;;
48028;SDS011;33808;37.368;127.108;2023-03-20T05:45:57;43.58;;;22.88;;
48028;SDS011;33808;37.368;127.108;2023-03-20T05:48:27;40.60;;;22.15;;
48028;SDS011;33808;37.368;127.108;2023-03-20T05:50:57;47.15;;;22.80;;
48028;SDS011;33808;37.368;127.108;2023-03-20T05:53:27;44.60;;;22.77;;
48028;SDS011;33808;37.368;127.108;2023-03-20T05:55:57;45.92;;;23.77;;
48028;SDS011;33808;37.368;127.108;2023-03-20T05:58:26;47.20;;;22.52;;
48028;SDS011;33808;37.368;127.108;2023-03-20T06:00:56;48.53;;;25.88;;
48028;SDS011;33808;37.368;127.108;2023-03-20T06:03:26;41.55;;;22.38;;
48028;SDS011;33808;37.368;127.108;2023-03-20T06:05:56;44.88;;;22.63;;
48028;SDS011;33808;37.368;127.108;2023-03-20T06:08:26;43.00;;;22.95;;
48028;SDS011;33808;37.368;127.108;2023-03-20T06:10:57;41.67;;;23.60;;
48028;SDS011;33808;37.368;127.108;2023-03-20T06:13:27;43.75;;;24.98;;
48028;SDS011;33808;37.368;127.108;2023-03-20T06:15:57;48.17;;;24.73;;
48028;SDS011;33808;37.368;127.108;2023-03-20T06:18:28;50.55;;;27.45;;
48028;SDS011;33808;37.368;127.108;2023-03-20T06:20:58;45.58;;;24.67;;
48028;SDS011;33808;37.368;127.108;2023-03-20T06:23:29;53.22;;;24.63;;
48028;SDS011;33808;37.368;127.108;2023-03-20T06:25:58;46.42;;;23.77;;
48028;SDS011;33808;37.368;127.108;2023-03-20T06:28:28;52.55;;;25.65;;
48028;SDS011;33808;37.368;127.108;2023-03-20T06:30:59;46.03;;;22.95;;
48028;SDS011;33808;37.368;127.108;2023-03-20T06:33:28;47.83;;;23.17;;
48028;SDS011;33808;37.368;127.108;2023-03-20T06:35:58;47.92;;;24.38;;
48028;SDS011;33808;37.368;127.108;2023-03-20T06:38:28;44.95;;;22.88;;
48028;SDS011;33808;37.368;127.108;2023-03-20T06:40:58;56.05;;;28.60;;
48028;SDS011;33808;37.368;127.108;2023-03-20T06:43:28;68.30;;;35.00;;
48028;SDS011;33808;37.368;127.108;2023-03-20T06:45:58;79.20;;;39.10;;
48028;SDS011;33808;37.368;127.108;2023-03-20T06:48:27;83.90;;;41.63;;
48028;SDS011;33808;37.368;127.108;2023-03-20T06:50:57;68.78;;;34.72;;
48028;SDS011;33808;37.368;127.108;2023-03-20T06:53:27;60.47;;;30.48;;
48028;SDS011;33808;37.368;127.108;2023-03-20T06:55:56;56.25;;;29.10;;
48028;SDS011;33808;37.368;127.108;2023-03-20T06:58:26;61.92;;;32.70;;
48028;SDS011;33808;37.368;127.108;2023-03-20T07:00:56;64.00;;;32.45;;
48028;SDS011;33808;37.368;127.108;2023-03-20T07:03:25;65.05;;;33.15;;
48028;SDS011;33808;37.368;127.108;2023-03-20T07:05:55;62.08;;;33.03;;
48028;SDS011;33808;37.368;127.108;2023-03-20T07:08:25;59.60;;;27.80;;
48028;SDS011;33808;37.368;127.108;2023-03-20T07:10:54;51.05;;;25.70;;
48028;SDS011;33808;37.368;127.108;2023-03-20T07:13:24;48.60;;;25.85;;
48028;SDS011;33808;37.368;127.108;2023-03-20T07:15:55;55.97;;;27.15;;
48028;SDS011;33808;37.368;127.108;2023-03-20T07:18:30;47.38;;;24.75;;
48028;SDS011;33808;37.368;127.108;2023-03-20T07:21:01;49.95;;;25.90;;
48028;SDS011;33808;37.368;127.108;2023-03-20T07:23:31;54.05;;;28.98;;
48028;SDS011;33808;37.368;127.108;2023-03-20T07:26:04;53.63;;;29.55;;
48028;SDS011;33808;37.368;127.108;2023-03-20T07:28:34;51.88;;;26.95;;
48028;SDS011;33808;37.368;127.108;2023-03-20T07:31:03;46.72;;;24.65;;
48028;SDS011;33808;37.368;127.108;2023-03-20T07:33:33;41.28;;;21.25;;
48028;SDS011;33808;37.368;127.108;2023-03-20T07:36:03;44.75;;;22.23;;
48028;SDS011;33808;37.368;127.108;2023-03-20T07:38:33;41.55;;;21.80;;
48028;SDS011;33808;37.368;127.108;2023-03-20T07:41:03;41.30;;;19.52;;
48028;SDS011;33808;37.368;127.108;2023-03-20T07:43:33;35.95;;;19.50;;
48028;SDS011;33808;37.368;127.108;2023-03-20T07:46:03;42.05;;;21.35;;
48028;SDS011;33808;37.368;127.108;2023-03-20T07:48:35;44.33;;;23.50;;
48028;SDS011;33808;37.368;127.108;2023-03-20T07:51:04;45.30;;;23.02;;
48028;SDS011;33808;37.368;127.108;2023-03-20T07:53:33;45.13;;;22.73;;
48028;SDS011;33808;37.368;127.108;2023-03-20T07:56:02;50.95;;;22.50;;
48028;SDS011;33808;37.368;127.108;2023-03-20T07:58:32;44.10;;;22.45;;
48028;SDS011;33808;37.368;127.108;2023-03-20T08:01:02;46.30;;;21.67;;
48028;SDS011;33808;37.368;127.108;2023-03-20T08:03:32;37.45;;;19.08;;
48028;SDS011;33808;37.368;127.108;2023-03-20T08:06:02;45.08;;;19.65;;
48028;SDS011;33808;37.368;127.108;2023-03-20T08:08:34;33.47;;;16.65;;
48028;SDS011;33808;37.368;127.108;2023-03-20T08:11:03;39.58;;;17.98;;
48028;SDS011;33808;37.368;127.108;2023-03-20T08:13:32;33.58;;;16.85;;
48028;SDS011;33808;37.368;127.108;2023-03-20T08:16:02;30.95;;;17.02;;
48028;SDS011;33808;37.368;127.108;2023-03-20T08:18:32;36.80;;;17.02;;
48028;SDS011;33808;37.368;127.108;2023-03-20T08:21:02;26.92;;;15.98;;
48028;SDS011;33808;37.368;127.108;2023-03-20T08:23:31;33.38;;;16.25;;
48028;SDS011;33808;37.368;127.108;2023-03-20T08:26:01;34.72;;;17.55;;
48028;SDS011;33808;37.368;127.108;2023-03-20T08:28:31;35.05;;;16.85;;
48028;SDS011;33808;37.368;127.108;2023-03-20T08:31:15;29.95;;;15.77;;
48028;SDS011;33808;37.368;127.108;2023-03-20T08:33:46;32.05;;;15.88;;
48028;SDS011;33808;37.368;127.108;2023-03-20T08:36:16;33.70;;;16.75;;
48028;SDS011;33808;37.368;127.108;2023-03-20T08:38:49;31.70;;;16.45;;
48028;SDS011;33808;37.368;127.108;2023-03-20T08:41:19;33.05;;;17.42;;
48028;SDS011;33808;37.368;127.108;2023-03-20T08:43:48;29.15;;;15.20;;
48028;SDS011;33808;37.368;127.108;2023-03-20T08:46:18;28.65;;;15.88;;
48028;SDS011;33808;37.368;127.108;2023-03-20T08:48:48;33.30;;;16.52;;
48028;SDS011;33808;37.368;127.108;2023-03-20T08:51:18;30.27;;;15.95;;
48028;SDS011;33808;37.368;127.108;2023-03-20T08:53:47;31.88;;;17.58;;
48028;SDS011;33808;37.368;127.108;2023-03-20T08:56:17;38.35;;;18.42;;
48028;SDS011;33808;37.368;127.108;2023-03-20T08:58:47;34.20;;;18.48;;
48028;SDS011;33808;37.368;127.108;2023-03-20T09:01:18;38.35;;;18.60;;
48028;SDS011;33808;37.368;127.108;2023-03-20T09:03:48;31.35;;;17.20;;
48028;SDS011;33808;37.368;127.108;2023-03-20T09:06:18;38.30;;;18.80;;
48028;SDS011;33808;37.368;127.108;2023-03-20T09:08:48;37.15;;;18.30;;
48028;SDS011;33808;37.368;127.108;2023-03-20T09:11:17;39.63;;;18.20;;
48028;SDS011;33808;37.368;127.108;2023-03-20T09:13:47;33.88;;;18.45;;
48028;SDS011;33808;37.368;127.108;2023-03-20T09:16:16;38.47;;;19.38;;
48028;SDS011;33808;37.368;127.108;2023-03-20T09:18:47;35.15;;;18.98;;
48028;SDS011;33808;37.368;127.108;2023-03-20T09:21:16;36.78;;;18.52;;
48028;SDS011;33808;37.368;127.108;2023-03-20T09:23:46;33.25;;;17.27;;
48028;SDS011;33808;37.368;127.108;2023-03-20T09:26:16;41.65;;;18.98;;
48028;SDS011;33808;37.368;127.108;2023-03-20T09:28:45;37.22;;;18.58;;
48028;SDS011;33808;37.368;127.108;2023-03-20T09:31:15;34.67;;;18.15;;
48028;SDS011;33808;37.368;127.108;2023-03-20T09:33:45;34.83;;;18.25;;
48028;SDS011;33808;37.368;127.108;2023-03-20T09:36:15;36.40;;;18.92;;
48028;SDS011;33808;37.368;127.108;2023-03-20T09:38:44;35.22;;;19.63;;
48028;SDS011;33808;37.368;127.108;2023-03-20T09:41:20;37.85;;;18.73;;
48028;SDS011;33808;37.368;127.108;2023-03-20T09:47:02;35.50;;;18.13;;
48028;SDS011;33808;37.368;127.108;2023-03-20T09:55:09;36.03;;;18.13;;
48028;SDS011;33808;37.368;127.108;2023-03-20T09:57:44;42.53;;;19.00;;
48028;SDS011;33808;37.368;127.108;2023-03-20T10:00:23;35.75;;;18.58;;
48028;SDS011;33808;37.368;127.108;2023-03-20T10:05:45;43.33;;;18.58;;
48028;SDS011;33808;37.368;127.108;2023-03-20T10:08:26;39.38;;;18.73;;
48028;SDS011;33808;37.368;127.108;2023-03-20T10:11:17;39.10;;;19.73;;
48028;SDS011;33808;37.368;127.108;2023-03-20T10:19:28;39.97;;;18.77;;
48028;SDS011;33808;37.368;127.108;2023-03-20T10:27:57;44.08;;;21.13;;
48028;SDS011;33808;37.368;127.108;2023-03-20T10:30:40;37.43;;;19.20;;
48028;SDS011;33808;37.368;127.108;2023-03-20T10:41:57;42.50;;;20.08;;
48028;SDS011;33808;37.368;127.108;2023-03-20T10:44:31;45.63;;;19.55;;
48028;SDS011;33808;37.368;127.108;2023-03-20T10:47:08;40.85;;;18.40;;
48028;SDS011;33808;37.368;127.108;2023-03-20T10:49:47;34.35;;;19.45;;
48028;SDS011;33808;37.368;127.108;2023-03-20T10:52:27;45.75;;;20.63;;
48028;SDS011;33808;37.368;127.108;2023-03-20T10:55:06;39.90;;;18.95;;
48028;SDS011;33808;37.368;127.108;2023-03-20T11:00:17;47.88;;;18.63;;
48028;SDS011;33808;37.368;127.108;2023-03-20T11:02:50;41.05;;;18.60;;
48028;SDS011;33808;37.368;127.108;2023-03-20T11:05:30;40.28;;;18.83;;
48028;SDS011;33808;37.368;127.108;2023-03-20T11:08:01;42.50;;;19.88;;
48028;SDS011;33808;37.368;127.108;2023-03-20T11:10:32;37.10;;;19.27;;
48028;SDS011;33808;37.368;127.108;2023-03-20T11:16:45;43.05;;;20.27;;
48028;SDS011;33808;37.368;127.108;2023-03-20T11:19:09;38.80;;;18.02;;
48028;SDS011;33808;37.368;127.108;2023-03-20T11:21:45;38.60;;;19.08;;
48028;SDS011;33808;37.368;127.108;2023-03-20T11:24:25;41.33;;;19.88;;
48028;SDS011;33808;37.368;127.108;2023-03-20T11:27:17;40.42;;;19.35;;
48028;SDS011;33808;37.368;127.108;2023-03-20T11:30:02;39.15;;;18.60;;
48028;SDS011;33808;37.368;127.108;2023-03-20T11:32:39;43.05;;;20.52;;
48028;SDS011;33808;37.368;127.108;2023-03-20T11:35:28;45.30;;;19.80;;
48028;SDS011;33808;37.368;127.108;2023-03-20T11:38:35;42.80;;;18.88;;
48028;SDS011;33808;37.368;127.108;2023-03-20T11:40:59;38.78;;;18.55;;
48028;SDS011;33808;37.368;127.108;2023-03-20T11:43:36;46.00;;;20.52;;
48028;SDS011;33808;37.368;127.108;2023-03-20T11:46:05;50.60;;;20.52;;
48028;SDS011;33808;37.368;127.108;2023-03-20T11:48:44;39.97;;;19.85;;
48028;SDS011;33808;37.368;127.108;2023-03-20T11:51:18;41.42;;;18.98;;
48028;SDS011;33808;37.368;127.108;2023-03-20T11:53:55;36.17;;;19.98;;
48028;SDS011;33808;37.368;127.108;2023-03-20T11:56:29;45.35;;;21.00;;
48028;SDS011;33808;37.368;127.108;2023-03-20T12:01:49;36.70;;;19.25;;
48028;SDS011;33808;37.368;127.108;2023-03-20T12:07:18;45.28;;;20.05;;
48028;SDS011;33808;37.368;127.108;2023-03-20T12:15:21;41.85;;;19.73;;
48028;SDS011;33808;37.368;127.108;2023-03-20T12:26:04;45.70;;;19.63;;
48028;SDS011;33808;37.368;127.108;2023-03-20T12:34:16;39.53;;;18.80;;
48028;SDS011;33808;37.368;127.108;2023-03-20T12:36:57;42.42;;;19.45;;
48028;SDS011;33808;37.368;127.108;2023-03-20T12:39:27;35.80;;;19.05;;
48028;SDS011;33808;37.368;127.108;2023-03-20T12:42:07;40.50;;;18.30;;
48028;SDS011;33808;37.368;127.108;2023-03-20T12:47:42;39.80;;;18.83;;
48028;SDS011;33808;37.368;127.108;2023-03-20T12:50:37;34.30;;;17.60;;
48028;SDS011;33808;37.368;127.108;2023-03-20T13:01:58;33.33;;;16.80;;
48028;SDS011;33808;37.368;127.108;2023-03-20T13:04:49;36.42;;;17.85;;
48028;SDS011;33808;37.368;127.108;2023-03-20T13:07:48;39.35;;;18.73;;
48028;SDS011;33808;37.368;127.108;2023-03-20T13:10:33;34.13;;;18.05;;
48028;SDS011;33808;37.368;127.108;2023-03-20T13:13:26;41.15;;;19.52;;
48028;SDS011;33808;37.368;127.108;2023-03-20T13:16:14;39.97;;;18.63;;
48028;SDS011;33808;37.368;127.108;2023-03-20T13:21:50;41.25;;;17.90;;
48028;SDS011;33808;37.368;127.108;2023-03-20T13:27:39;41.15;;;19.00;;
48028;SDS011;33808;37.368;127.108;2023-03-20T13:30:13;35.20;;;18.90;;
48028;SDS011;33808;37.368;127.108;2023-03-20T13:38:20;41.58;;;18.60;;
48028;SDS011;33808;37.368;127.108;2023-03-20T13:41:00;40.53;;;18.60;;
48028;SDS011;33808;37.368;127.108;2023-03-20T13:43:35;40.10;;;19.92;;
48028;SDS011;33808;37.368;127.108;2023-03-20T13:46:23;44.50;;;19.67;;
48028;SDS011;33808;37.368;127.108;2023-03-20T13:49:04;34.47;;;18.02;;
48028;SDS011;33808;37.368;127.108;2023-03-20T13:57:20;47.30;;;20.48;;
48028;SDS011;33808;37.368;127.108;2023-03-20T14:00:04;40.30;;;20.83;;
48028;SDS011;33808;37.368;127.108;2023-03-20T14:05:47;45.92;;;21.05;;
48028;SDS011;33808;37.368;127.108;2023-03-20T14:11:25;47.80;;;19.67;;
48028;SDS011;33808;37.368;127.108;2023-03-20T14:14:13;46.47;;;20.00;;
48028;SDS011;33808;37.368;127.108;2023-03-20T14:16:42;43.63;;;20.15;;
48028;SDS011;33808;37.368;127.108;2023-03-20T14:19:16;41.92;;;18.73;;
48028;SDS011;33808;37.368;127.108;2023-03-20T14:21:49;36.00;;;17.73;;
48028;SDS011;33808;37.368;127.108;2023-03-20T14:24:22;40.17;;;19.15;;
48028;SDS011;33808;37.368;127.108;2023-03-20T14:26:54;39.28;;;19.23;;
48028;SDS011;33808;37.368;127.108;2023-03-20T14:40:16;39.58;;;19.58;;
48028;SDS011;33808;37.368;127.108;2023-03-20T14:42:57;39.60;;;18.23;;
48028;SDS011;33808;37.368;127.108;2023-03-20T14:53:35;47.53;;;21.65;;
48028;SDS011;33808;37.368;127.108;2023-03-20T14:56:13;43.83;;;19.87;;
48028;SDS011;33808;37.368;127.108;2023-03-20T14:58:47;54.42;;;21.45;;
48028;SDS011;33808;37.368;127.108;2023-03-20T15:03:58;45.97;;;20.15;;
48028;SDS011;33808;37.368;127.108;2023-03-20T15:06:29;51.08;;;21.77;;
48028;SDS011;33808;37.368;127.108;2023-03-20T15:11:36;45.88;;;21.40;;
48028;SDS011;33808;37.368;127.108;2023-03-20T15:14:06;39.25;;;20.80;;
48028;SDS011;33808;37.368;127.108;2023-03-20T15:16:38;45.17;;;20.90;;
48028;SDS011;33808;37.368;127.108;2023-03-20T15:19:17;46.45;;;23.13;;
48028;SDS011;33808;37.368;127.108;2023-03-20T15:21:48;56.25;;;23.90;;
48028;SDS011;33808;37.368;127.108;2023-03-20T15:24:21;52.65;;;22.42;;
48028;SDS011;33808;37.368;127.108;2023-03-20T15:26:57;49.78;;;22.08;;
48028;SDS011;33808;37.368;127.108;2023-03-20T15:29:29;52.58;;;22.85;;
48028;SDS011;33808;37.368;127.108;2023-03-20T15:32:00;50.03;;;22.65;;
48028;SDS011;33808;37.368;127.108;2023-03-20T15:34:41;49.47;;;22.48;;
48028;SDS011;33808;37.368;127.108;2023-03-20T15:37:12;49.45;;;23.25;;
48028;SDS011;33808;37.368;127.108;2023-03-20T15:39:45;51.80;;;23.77;;
48028;SDS011;33808;37.368;127.108;2023-03-20T15:42:18;44.58;;;21.25;;
48028;SDS011;33808;37.368;127.108;2023-03-20T15:44:50;54.38;;;22.52;;
48028;SDS011;33808;37.368;127.108;2023-03-20T15:47:23;50.03;;;23.73;;
48028;SDS011;33808;37.368;127.108;2023-03-20T15:49:57;49.92;;;23.52;;
48028;SDS011;33808;37.368;127.108;2023-03-20T15:52:35;50.28;;;22.58;;
48028;SDS011;33808;37.368;127.108;2023-03-20T15:55:11;61.28;;;22.65;;
48028;SDS011;33808;37.368;127.108;2023-03-20T15:57:45;52.83;;;22.60;;
48028;SDS011;33808;37.368;127.108;2023-03-20T16:00:19;42.55;;;22.65;;
48028;SDS011;33808;37.368;127.108;2023-03-20T16:02:50;49.30;;;22.60;;
48028;SDS011;33808;37.368;127.108;2023-03-20T16:05:20;50.00;;;22.92;;
48028;SDS011;33808;37.368;127.108;2023-03-20T16:07:54;54.85;;;23.35;;
48028;SDS011;33808;37.368;127.108;2023-03-20T16:10:27;50.85;;;23.42;;
48028;SDS011;33808;37.368;127.108;2023-03-20T16:13:00;43.40;;;21.83;;
48028;SDS011;33808;37.368;127.108;2023-03-20T16:15:31;45.30;;;24.17;;
48028;SDS011;33808;37.368;127.108;2023-03-20T16:18:03;49.05;;;21.98;;
48028;SDS011;33808;37.368;127.108;2023-03-20T16:20:38;55.92;;;23.25;;
48028;SDS011;33808;37.368;127.108;2023-03-20T16:23:09;45.53;;;23.27;;
48028;SDS011;33808;37.368;127.108;2023-03-20T16:25:47;61.35;;;24.10;;
48028;SDS011;33808;37.368;127.108;2023-03-20T16:28:17;49.50;;;24.38;;
48028;SDS011;33808;37.368;127.108;2023-03-20T16:30:47;51.53;;;24.48;;
48028;SDS011;33808;37.368;127.108;2023-03-20T16:33:19;48.00;;;23.13;;
48028;SDS011;33808;37.368;127.108;2023-03-20T16:35:49;45.40;;;23.23;;
48028;SDS011;33808;37.368;127.108;2023-03-20T16:38:23;51.95;;;24.60;;
48028;SDS011;33808;37.368;127.108;2023-03-20T16:41:12;53.70;;;24.52;;
48028;SDS011;33808;37.368;127.108;2023-03-20T16:43:45;53.35;;;24.83;;
48028;SDS011;33808;37.368;127.108;2023-03-20T16:46:21;47.95;;;25.73;;
48028;SDS011;33808;37.368;127.108;2023-03-20T16:49:21;58.53;;;25.05;;
48028;SDS011;33808;37.368;127.108;2023-03-20T16:52:04;53.25;;;25.08;;
48028;SDS011;33808;37.368;127.108;2023-03-20T16:54:41;52.50;;;24.85;;
48028;SDS011;33808;37.368;127.108;2023-03-20T16:57:14;52.33;;;24.40;;
48028;SDS011;33808;37.368;127.108;2023-03-20T16:59:46;55.20;;;25.15;;
48028;SDS011;33808;37.368;127.108;2023-03-20T17:02:22;55.33;;;24.88;;
48028;SDS011;33808;37.368;127.108;2023-03-20T17:05:00;54.55;;;25.52;;
48028;SDS011;33808;37.368;127.108;2023-03-20T17:07:30;52.47;;;24.83;;
48028;SDS011;33808;37.368;127.108;2023-03-20T17:10:15;60.33;;;26.17;;
48028;SDS011;33808;37.368;127.108;2023-03-20T17:12:45;58.08;;;26.65;;
48028;SDS011;33808;37.368;127.108;2023-03-20T17:15:17;48.67;;;24.83;;
48028;SDS011;33808;37.368;127.108;2023-03-20T17:17:49;51.90;;;25.77;;
48028;SDS011;33808;37.368;127.108;2023-03-20T17:20:22;57.80;;;25.55;;